HGLO2: Hugo Lake

Data processed at Mon Oct 16 2017 22:06


All information presented herein is the property of the government of the United States of America and may be revised or deleted at any time without prior notice.
Dissemination of this information without the expressed written consent of the Public Affairs Office, Tulsa District U.S. Army Corps of Engineers is strictly prohibited.
These data are gathered electronically and, as presented, have not undergone any form of quality control. These data are not guaranteed to be valid or correct.
Go to home page.
Go to station list.

Upstream stations:

Downstream station:
Previous Day
Next Day
Current Day
    
SHEF ID:       HGLO2     Hugo Lake
STATION TYPE:  RESERVOIR
Normal Pool:  Bottom =   390.00, Top =   404.50

               PRECIP ELEVATION   STORAGE    INFLOW   RELEASE  AIR-TEMP  WIND-DIRWIND-SPEED REL-HUMID SOLAR-RAD   VOLTAGE  BAT-LOAD
                   in        ft     ac-ft       cfs       cfs         F       deg       mph         %      W/m2      volt      volt
              Ccp-Rev   Ccp-Rev   Ccp-Rev  Regi-Rev  Regi-Rev   Ccp-Rev   Ccp-Rev   Ccp-Rev   Ccp-Rev   Ccp-Rev   Ccp-Rev   Ccp-Rev
(US/Central)
10/16 00:00      0.00    403.29    128740        65       145     58.33      0.60      6.75     59.46      0.00     13.68     13.36
10/16 01:00      0.00    403.29    128740        65       145     57.79      2.40      5.85     62.75      0.00     13.68     13.36
10/16 02:00      0.00    403.28    128623        48       145     56.48      1.40      7.45     68.67      0.00     13.68     13.36
10/16 03:00      0.00    403.29    128740        32       145     54.82      0.80      8.69     73.68      0.00     13.68     13.30
10/16 04:00      0.00    403.29    128740        16       145     53.40      1.70      9.19     75.82      0.00     13.67     13.36
10/16 05:00      0.00    403.30    128857         0       145     55.26    358.20      9.30     70.87      0.00     13.67     13.30
10/16 06:00      0.00    403.30    128857         0       145     53.94      1.10      9.34     68.25      0.00     13.67     13.36
10/16 07:00      0.00    403.27    128506         0       145     52.84      3.30      5.79     68.12      0.00     13.67     13.36
10/16 08:00      0.00    403.27    128506         0       145     52.95     10.00      3.99     70.20     18.00     13.66     13.36
10/16 09:00      0.00    403.27    128506        19       145     55.92    356.00      6.16     65.68    189.00     13.67     13.36
10/16 10:00      0.00    403.26    128388        39       145     58.78     56.60      2.96     59.39    392.00     13.66     13.36
10/16 11:00      0.00    403.26    128388        58       145     62.08     83.20      5.62     48.83    572.00     13.67     12.13
10/16 12:00      0.00    403.26    128388        78       145     65.37     94.40      3.69     44.13    707.00     13.67     13.36
10/16 13:00      0.00    403.26    128388        78       145     66.58    289.50      3.41     39.07    776.00     13.68     13.30
10/16 14:00      0.00    403.26    128388        78       145     70.32    328.10      6.55     35.16    776.00     13.68     12.36
10/16 15:00      0.00    403.25    128271        78       145     72.63    323.70      5.29     34.24    708.00     13.68     13.36
10/16 16:00      0.00    403.25    128271        78       145     73.06    319.00      4.51     30.40    578.00     13.68     13.30
10/16 17:00      0.00    403.25    128271        78       145     74.93    333.60      4.87     27.16    393.00     13.69     13.36
10/16 18:00      0.00    403.24    128154        97       145     74.39    296.60      1.01     29.30    181.00     13.69     13.36
10/16 19:00      0.00    403.25    128271       107       145     66.15    175.50      0.80     48.59      8.00     13.69     13.36
10/16 20:00      0.00    403.25    128271       107       145     62.96    319.20      0.89     69.71      0.00     13.69     13.36
10/16 21:00      0.00    403.25    128271       126       145     60.31    108.10      0.20     69.83      0.00     13.69     13.36
10/16 22:00      0.00    403.25      ----      ----      ----     53.29    173.00      2.55     92.30      0.00     13.69     13.36
10/16 23:00      ----      ----      ----      ----      ----      ----      ----      ----      ----      ----      ----      ----